Time;durP1;ratioP1;P1;durP2;ratioP2;P2;SDS_P1;SDS_P2;PMS_P1;PMS_P2;Temp;Humidity;BMP_temperature;BMP_pressure;BME280_temperature;BME280_humidity;BME280_pressure;Samples;Min_cycle;Max_cycle;Signal;HPM_P1;HPM_P2
2022/04/11 00:05:06;;;;;;;1999.90;999.90;;;;;;;7.14;62.95;101532.97;15745581;28;20045;-63
2022/04/11 00:12:39;;;;;;;1999.90;999.90;;;;;;;7.15;62.63;101525.47;15724541;28;20508;-63
2022/04/11 00:20:13;;;;;;;1999.90;999.90;;;;;;;6.92;63.82;101525.09;15734068;28;20041;-63
2022/04/11 00:27:45;;;;;;;;;;;;;;;6.93;63.39;101525.94;15748098;28;20078;-63
2022/04/11 00:35:19;;;;;;;1999.90;999.90;;;;;;;6.45;64.46;101525.69;15753255;28;19921;-63
2022/04/11 00:42:52;;;;;;;1999.90;999.90;;;;;;;6.28;64.77;101526.06;15759139;28;20083;-63
2022/04/11 00:50:29;;;;;;;1999.90;999.90;;;;;;;6.25;65.72;101523.88;15741812;28;20044;-62
2022/04/11 00:58:01;;;;;;;1999.90;999.90;;;;;;;6.06;65.95;101522.84;15748912;28;20128;-62
2022/04/11 01:05:35;;;;;;;1999.90;999.90;;;;;;;5.87;66.59;101525.38;15767153;28;20060;-62
2022/04/11 01:13:07;;;;;;;1999.90;999.90;;;;;;;5.61;67.14;101527.34;15783840;28;20252;-62
2022/04/11 01:20:41;;;;;;;1999.90;999.90;;;;;;;5.70;66.76;101522.91;15742220;28;20071;-63
2022/04/11 01:28:14;;;;;;;1999.90;999.90;;;;;;;5.52;67.68;101523.50;15764078;28;20512;-63
2022/04/11 01:35:47;;;;;;;1999.90;999.90;;;;;;;5.24;67.95;101519.41;15743681;28;20028;-62
2022/04/11 01:43:22;;;;;;;1999.90;999.90;;;;;;;5.41;67.57;101516.31;15745159;28;20045;-62
2022/04/11 01:50:55;;;;;;;1999.90;999.90;;;;;;;5.26;68.05;101513.56;15747399;28;20127;-63
2022/04/11 01:58:29;;;;;;;1999.90;999.90;;;;;;;5.21;67.28;101523.56;15713321;28;20059;-62
2022/04/11 02:06:02;;;;;;;1999.90;999.90;;;;;;;5.27;67.57;101527.13;15724399;28;20113;-61
2022/04/11 02:13:36;;;;;;;1999.90;999.90;;;;;;;5.22;67.83;101521.63;15726434;28;20130;-63
2022/04/11 02:21:09;;;;;;;;;;;;;;;5.27;67.45;101516.06;15724354;28;20055;-62
2022/04/11 02:28:42;;;;;;;1999.90;999.90;;;;;;;5.12;67.78;101522.44;15723934;28;20002;-62
2022/04/11 02:36:15;;;;;;;1999.90;999.90;;;;;;;5.01;68.41;101526.31;15706227;28;20094;-63
2022/04/11 02:43:48;;;;;;;1999.90;999.90;;;;;;;4.99;68.11;101520.22;15709352;28;20448;-62
2022/04/11 02:51:24;;;;;;;1999.90;999.90;;;;;;;4.89;68.64;101512.75;15708041;28;20067;-64
2022/04/11 02:59:04;;;;;;;1999.90;999.90;;;;;;;4.72;68.89;101514.13;15707612;28;20090;-63
2022/04/11 03:06:38;;;;;;;1999.90;999.90;;;;;;;4.69;68.64;101509.13;15724103;28;20511;-63
2022/04/11 03:14:12;;;;;;;1999.90;999.90;;;;;;;4.67;69.95;101505.81;15722981;28;20500;-63
2022/04/11 03:21:44;;;;;;;1999.90;999.90;;;;;;;4.42;70.42;101504.66;15722113;28;20056;-62
2022/04/11 03:29:22;;;;;;;1999.90;999.90;;;;;;;4.42;70.68;101506.59;15723493;28;20223;-63
2022/04/11 03:36:55;;;;;;;1999.90;999.90;;;;;;;4.32;70.63;101516.53;15728691;28;20453;-62
2022/04/11 03:44:31;;;;;;;1999.90;999.90;;;;;;;4.39;70.29;101516.28;15683655;22;20060;-61
2022/04/11 03:52:09;;;;;;;1999.90;999.90;;;;;;;4.27;70.86;101522.06;15607209;28;20050;-60
2022/04/11 03:59:43;;;;;;;1999.90;999.90;;;;;;;4.21;71.01;101525.88;15607893;28;20064;-62
2022/04/11 04:07:17;;;;;;;1999.90;999.90;;;;;;;4.11;70.40;101517.56;15598428;28;20124;-61
2022/04/11 04:14:53;;;;;;;1999.90;999.90;;;;;;;3.84;71.39;101525.16;15589079;28;20076;-62
2022/04/11 04:22:26;;;;;;;1999.90;999.90;;;;;;;3.61;70.31;101530.00;15597773;28;20038;-62
2022/04/11 04:30:01;;;;;;;1999.90;999.90;;;;;;;3.41;70.15;101524.34;15581751;28;20467;-62
2022/04/11 04:37:34;;;;;;;1999.90;999.90;;;;;;;3.56;70.48;101529.16;15598053;28;20470;-61
2022/04/11 04:45:10;;;;;;;1999.90;999.90;;;;;;;3.51;70.18;101538.22;15597403;28;20437;-61
2022/04/11 04:53:02;;;;;;;1999.90;999.90;;;;;;;3.47;70.48;101546.22;15596179;28;20049;-62
2022/04/11 05:00:36;;;;;;;1999.90;999.90;;;;;;;3.53;70.38;101549.81;15595081;28;20045;-62
2022/04/11 05:08:11;;;;;;;1999.90;999.90;;;;;;;3.91;70.03;101556.13;15593353;28;20068;-62
2022/04/11 05:15:47;;;;;;;1999.90;999.90;;;;;;;4.23;69.34;101556.81;15594815;28;20531;-60
2022/04/11 05:23:26;;;;;;;1999.90;999.90;;;;;;;4.69;67.71;101561.66;15591893;28;20397;-60
2022/04/11 05:31:01;;;;;;;1999.90;999.90;;;;;;;5.12;66.93;101565.88;15594296;28;20431;-60
2022/04/11 05:38:34;;;;;;;1999.90;999.90;;;;;;;5.69;65.87;101565.56;15593827;28;20065;-60
2022/04/11 05:46:11;;;;;;;1999.90;999.90;;;;;;;6.33;63.97;101562.06;15576401;28;20517;-59
2022/04/11 05:53:47;;;;;;;1999.90;999.90;;;;;;;7.44;61.41;101572.72;15532483;28;20397;-61
2022/04/11 06:01:22;;;;;;;1999.90;999.90;;;;;;;7.67;60.20;101579.44;15538360;28;20378;-61
2022/04/11 06:08:54;;;;;;;1999.90;999.90;;;;;;;8.11;59.87;101585.63;15608551;28;20426;-61
2022/04/11 06:16:28;;;;;;;1999.90;999.90;;;;;;;9.69;56.09;101585.28;15593243;28;20115;-62
2022/04/11 06:24:01;;;;;;;1999.90;999.90;;;;;;;10.24;53.76;101594.63;15588258;28;20041;-61
2022/04/11 06:31:34;;;;;;;1999.90;999.90;;;;;;;11.15;52.92;101596.53;15592560;28;20053;-62
2022/04/11 06:39:16;;;;;;;1999.90;999.90;;;;;;;11.52;50.89;101609.31;15591729;28;20073;-62
2022/04/11 06:46:55;;;;;;;1999.90;999.90;;;;;;;11.76;51.09;101615.41;15551559;28;20049;-61
2022/04/11 06:54:31;;;;;;;1999.90;999.90;;;;;;;11.80;51.01;101605.28;15564549;28;20053;-62
2022/04/11 07:02:05;;;;;;;1999.90;999.90;;;;;;;11.97;50.24;101604.53;15564475;28;20041;-62
2022/04/11 07:09:37;;;;;;;1999.90;999.90;;;;;;;12.60;48.76;101614.50;15595938;28;20045;-62
2022/04/11 07:17:11;;;;;;;1999.90;999.90;;;;;;;13.16;47.54;101617.56;15635443;28;20056;-62
2022/04/11 07:24:43;;;;;;;;;;;;;;;14.29;43.36;101607.00;15564594;28;20099;-62
2022/04/11 07:32:16;;;;;;;1999.90;999.90;;;;;;;15.17;40.81;101612.63;15541126;28;20354;-62
2022/04/11 07:39:48;;;;;;;1999.90;999.90;;;;;;;15.28;38.90;101618.66;15558497;28;20522;-63
2022/04/11 07:47:22;;;;;;;1999.90;999.90;;;;;;;14.54;40.39;101614.50;15557586;28;20050;-63
2022/04/11 07:54:54;;;;;;;;;;;;;;;15.06;38.10;101624.63;15589229;28;20455;-63
2022/04/11 08:02:28;;;;;;;1999.90;999.90;;;;;;;15.90;37.14;101611.31;15599626;28;19943;-62
2022/04/11 08:10:00;;;;;;;1999.90;999.90;;;;;;;16.41;37.10;101616.34;15633878;28;20497;-62
2022/04/11 08:17:34;;;;;;;1999.90;999.90;;;;;;;15.49;35.97;101615.81;15601423;28;20052;-62
2022/04/11 08:25:09;;;;;;;1999.90;999.90;;;;;;;17.66;33.66;101622.25;15601363;28;20060;-63
2022/04/11 08:32:45;;;;;;;1999.90;999.90;;;;;;;17.42;32.27;101617.53;15619382;28;20045;-63
2022/04/11 08:40:19;;;;;;;1999.90;999.90;;;;;;;17.36;31.01;101618.94;15619663;28;20065;-63
2022/04/11 08:47:54;;;;;;;1999.90;999.90;;;;;;;17.12;31.34;101626.31;15601384;28;20057;-60
2022/04/11 08:55:26;;;;;;;1999.90;999.90;;;;;;;17.68;30.48;101620.69;15580838;28;20042;-63
2022/04/11 09:03:00;;;;;;;1999.90;999.90;;;;;;;17.53;29.86;101618.66;15554396;28;20042;-62
2022/04/11 09:10:37;;;;;;;1999.90;999.90;;;;;;;16.66;29.43;101600.25;15554786;28;20049;-62
2022/04/11 09:18:11;;;;;;;1999.90;999.90;;;;;;;17.83;30.66;101600.22;15536055;28;20391;-61
2022/04/11 09:25:43;;;;;;;1999.90;999.90;;;;;;;17.93;28.92;101600.88;15552521;28;20137;-61
2022/04/11 09:33:17;;;;;;;1999.90;999.90;;;;;;;19.30;27.18;101598.97;15550881;28;20054;-61
2022/04/11 09:40:51;;;;;;;1999.90;999.90;;;;;;;19.00;28.84;101591.06;15551776;28;20479;-61
2022/04/11 09:48:26;;;;;;;1999.90;999.90;;;;;;;19.48;29.36;101605.00;15730289;23;20048;-65
2022/04/11 09:56:03;;;;;;;1999.90;999.90;;;;;;;18.96;27.79;101590.13;15700659;28;20055;-62
2022/04/11 10:03:37;;;;;;;1999.90;999.90;;;;;;;19.67;29.12;101588.03;15736389;28;20048;-62
2022/04/11 10:11:09;;;;;;;1999.90;999.90;;;;;;;19.37;28.56;101589.81;15744242;28;20124;-64
2022/04/11 10:18:43;;;;;;;1999.90;999.90;;;;;;;18.41;29.82;101569.41;15743892;28;20508;-62
2022/04/11 10:26:17;;;;;;;1999.90;999.90;;;;;;;18.86;28.76;101576.59;15738931;28;20509;-62
2022/04/11 10:33:53;;;;;;;1999.90;999.90;;;;;;;19.20;28.04;101574.94;15743250;28;20072;-63
2022/04/11 10:42:09;;;;;;;1999.90;999.90;;;;;;;15.72;32.34;101568.47;15742536;28;20097;-62
2022/04/11 10:50:16;;;;;;;1999.90;999.90;;;;;;;15.42;33.74;101562.94;15740276;28;20063;-62
2022/04/11 10:57:54;;;;;;;1999.90;999.90;;;;;;;15.52;34.43;101562.50;15739265;28;20051;-62
2022/04/11 11:05:28;;;;;;;1999.90;999.90;;;;;;;15.31;35.53;101558.91;15720955;28;20400;-62
2022/04/11 11:13:27;;;;;;;1999.90;999.90;;;;;;;15.23;36.69;101555.03;15720408;28;20542;-62
2022/04/11 11:20:59;;;;;;;1999.90;999.90;;;;;;;16.74;35.33;101551.41;15716092;28;20072;-61
2022/04/11 11:28:33;;;;;;;1999.90;999.90;;;;;;;15.47;34.64;101539.41;15737560;28;20044;-61
2022/04/11 11:36:08;;;;;;;1999.90;999.90;;;;;;;14.88;36.50;101529.19;15737709;28;20055;-61
2022/04/11 11:43:42;;;;;;;1999.90;999.90;;;;;;;18.20;31.36;101523.69;15738060;28;20139;-65
2022/04/11 11:51:14;;;;;;;1999.90;999.90;;;;;;;17.28;30.48;101520.00;15738326;28;20055;-62
2022/04/11 11:58:49;;;;;;;1999.90;999.90;;;;;;;16.07;33.70;101512.59;15745112;28;20079;-62
2022/04/11 12:06:24;;;;;;;1999.90;999.90;;;;;;;19.16;30.80;101517.44;15749031;28;20072;-62
2022/04/11 12:14:02;;;;;;;1999.90;999.90;;;;;;;20.38;29.04;101504.31;15729708;28;20413;-61
2022/04/11 12:21:36;;;;;;;1999.90;999.90;;;;;;;20.28;27.66;101498.47;15747705;28;20040;-62
2022/04/11 12:29:13;;;;;;;1999.90;999.90;;;;;;;21.99;26.05;101500.66;15749921;28;20493;-63
2022/04/11 12:36:59;;;;;;;1999.90;999.90;;;;;;;21.51;25.83;101483.56;15713218;28;20045;-62
2022/04/11 12:44:36;;;;;;;1999.90;999.90;;;;;;;23.96;22.91;101477.66;15745851;28;20135;-62
2022/04/11 12:52:09;;;;;;;1999.90;999.90;;;;;;;26.14;19.87;101467.81;15724163;28;20051;-63
2022/04/11 12:59:43;;;;;;;1999.90;999.90;;;;;;;22.52;23.44;101467.00;15719151;28;20056;-61
2022/04/11 13:07:15;;;;;;;1999.90;999.90;;;;;;;17.66;29.63;101465.00;15684341;28;20707;-59
2022/04/11 13:14:51;;;;;;;1999.90;999.90;;;;;;;23.70;24.40;101456.06;15733114;28;20559;-60
2022/04/11 13:22:25;;;;;;;1999.90;999.90;;;;;;;22.57;23.99;101443.03;15718786;28;20060;-61
2022/04/11 13:29:58;;;;;;;;;;;;;;;18.78;27.93;101441.91;15698716;28;20073;-60
2022/04/11 13:37:31;;;;;;;1999.90;999.90;;;;;;;19.67;27.90;101428.69;15733115;28;19920;-61
2022/04/11 13:45:05;;;;;;;1999.90;999.90;;;;;;;22.00;26.05;101419.91;15722017;28;20038;-61
2022/04/11 13:52:38;;;;;;;1999.90;999.90;;;;;;;29.72;18.53;101424.25;15700178;28;20049;-64
2022/04/11 14:00:13;;;;;;;1999.90;999.90;;;;;;;20.69;25.85;101414.47;15686651;28;20116;-64
2022/04/11 14:07:45;;;;;;;1999.90;999.90;;;;;;;18.07;28.37;101403.53;15710686;28;20068;-64
2022/04/11 14:15:21;;;;;;;1999.90;999.90;;;;;;;17.00;31.68;101389.50;15720442;28;20037;-64
2022/04/11 14:22:53;;;;;;;1999.90;999.90;;;;;;;16.85;30.46;101390.25;15719211;28;20101;-64
2022/04/11 14:30:27;;;;;;;1999.90;999.90;;;;;;;17.58;29.50;101364.41;15680598;28;20094;-63
2022/04/11 14:37:59;;;;;;;1999.90;999.90;;;;;;;16.44;31.60;101370.56;15719963;28;20056;-63
2022/04/11 14:45:32;;;;;;;1999.90;999.90;;;;;;;16.75;32.78;101363.41;15698419;28;20454;-63
2022/04/11 14:53:06;;;;;;;1999.90;999.90;;;;;;;16.76;32.12;101364.25;15719341;28;20154;-63
2022/04/11 15:00:40;;;;;;;1999.90;999.90;;;;;;;16.72;32.11;101352.88;15700603;28;20473;-64
2022/04/11 15:08:12;;;;;;;1999.90;999.90;;;;;;;16.19;31.36;101346.47;15704066;28;20053;-64
2022/04/11 15:15:48;;;;;;;1999.90;999.90;;;;;;;16.29;32.65;101343.16;15712032;28;20041;-63
2022/04/11 15:23:20;;;;;;;1999.90;999.90;;;;;;;16.34;31.49;101337.25;15688729;28;20041;-64
2022/04/11 15:30:55;;;;;;;1999.90;999.90;;;;;;;16.63;31.58;101330.44;15703506;28;20135;-64
2022/04/11 15:38:27;;;;;;;1999.90;999.90;;;;;;;15.67;33.98;101340.81;15697740;28;20083;-63
2022/04/11 15:46:03;;;;;;;1999.90;999.90;;;;;;;15.93;33.87;101321.53;15720726;28;20045;-65
2022/04/11 15:53:35;;;;;;;1999.90;999.90;;;;;;;15.52;33.31;101328.22;15701596;28;20491;-64
2022/04/11 16:01:09;;;;;;;1999.90;999.90;;;;;;;15.94;32.88;101317.53;15739141;28;20066;-64
2022/04/11 16:08:43;;;;;;;1999.90;999.90;;;;;;;15.65;32.40;101315.03;15714631;28;20501;-64
2022/04/11 16:16:16;;;;;;;1999.90;999.90;;;;;;;15.95;32.93;101313.56;15705094;28;20072;-63
2022/04/11 16:23:49;;;;;;;1999.90;999.90;;;;;;;15.58;33.70;101313.56;15736795;28;20059;-64
2022/04/11 16:31:23;;;;;;;1999.90;999.90;;;;;;;15.31;33.44;101322.72;15726289;28;20697;-64
2022/04/11 16:38:56;;;;;;;1999.90;999.90;;;;;;;15.12;33.83;101309.25;15746039;28;20500;-64
2022/04/11 16:46:29;;;;;;;1999.90;999.90;;;;;;;14.40;33.99;101325.50;15725559;28;20076;-64
2022/04/11 16:54:01;;;;;;;;;;;;;;;14.66;33.83;101316.84;15726262;28;20557;-64
2022/04/11 17:01:35;;;;;;;1999.90;999.90;;;;;;;14.84;33.46;101320.31;15739761;28;19929;-64
2022/04/11 17:09:08;;;;;;;1999.90;999.90;;;;;;;14.65;34.74;101317.22;15739670;28;20040;-62
2022/04/11 17:24:31;;;;;;;1999.90;999.90;;;;;;;14.41;36.23;101331.94;15736567;28;20147;-63
2022/04/11 17:32:07;;;;;;;1999.90;999.90;;;;;;;14.21;38.42;101336.41;15736544;28;20120;-63
2022/04/11 17:39:39;;;;;;;1999.90;999.90;;;;;;;13.89;39.01;101335.16;15734438;28;20420;-62
2022/04/11 17:47:13;;;;;;;1999.90;999.90;;;;;;;13.87;38.07;101334.69;15698365;28;20497;-63
2022/04/11 17:54:46;;;;;;;1999.90;999.90;;;;;;;13.44;40.45;101349.78;15717527;28;20083;-61
2022/04/11 18:02:20;;;;;;;1999.90;999.90;;;;;;;13.10;42.51;101347.91;15737360;28;20137;-64
2022/04/11 18:09:52;;;;;;;1999.90;999.90;;;;;;;12.72;44.31;101347.84;15734322;28;20044;-65
2022/04/11 18:17:25;;;;;;;1999.90;999.90;;;;;;;12.30;44.89;101346.75;15694162;28;20041;-63
2022/04/11 18:24:57;;;;;;;;;;;;;;;12.16;45.68;101354.47;15683320;28;20060;-62
2022/04/11 18:32:31;;;;;;;1999.90;999.90;;;;;;;11.69;47.67;101352.22;15715509;28;20396;-63
2022/04/11 18:40:04;;;;;;;1999.90;999.90;;;;;;;11.55;48.38;101363.53;15646055;28;20387;-61
2022/04/11 18:47:38;;;;;;;1999.90;999.90;;;;;;;11.26;48.26;101363.28;15704694;28;20180;-63
2022/04/11 18:55:10;;;;;;;1999.90;999.90;;;;;;;10.99;48.81;101359.50;15670564;28;20068;-62
2022/04/11 19:02:44;;;;;;;1999.90;999.90;;;;;;;10.81;48.89;101371.72;15645400;28;20474;-62
2022/04/11 19:10:16;;;;;;;;;;;;;;;10.55;51.80;101379.91;15722230;28;20079;-63
2022/04/11 19:17:49;;;;;;;1999.90;999.90;;;;;;;10.34;51.01;101378.78;15710841;28;19959;-62
2022/04/11 19:25:22;;;;;;;1999.90;999.90;;;;;;;10.13;51.65;101376.44;15706590;28;20053;-61
2022/04/11 19:32:56;;;;;;;1999.90;999.90;;;;;;;9.86;52.85;101379.25;15742501;28;20045;-63
2022/04/11 19:40:29;;;;;;;;;;;;;;;9.75;53.33;101388.97;15771094;28;20064;-62
2022/04/11 19:55:53;;;;;;;1999.90;999.90;;;;;;;9.50;54.01;101395.91;15694766;28;20459;-63
2022/04/11 20:03:28;;;;;;;1999.90;999.90;;;;;;;9.24;54.63;101390.00;15711099;28;20441;-61
2022/04/11 20:11:00;;;;;;;1999.90;999.90;;;;;;;8.92;54.29;101385.31;15733985;28;20443;-62
2022/04/11 20:18:34;;;;;;;1999.90;999.90;;;;;;;8.73;55.11;101378.97;15707446;28;20044;-62
2022/04/11 20:26:06;;;;;;;;;;;;;;;8.65;55.71;101375.78;15714287;28;20048;-62
2022/04/11 20:33:40;;;;;;;1999.90;999.90;;;;;;;8.42;55.91;101387.00;15716870;28;19920;-63
2022/04/11 20:41:12;;;;;;;1999.90;999.90;;;;;;;7.77;58.42;101394.00;15724615;28;20052;-62
2022/04/11 20:48:46;;;;;;;1999.90;999.90;;;;;;;8.11;57.89;101399.38;15727956;28;20068;-62
2022/04/11 20:56:19;;;;;;;1999.90;999.90;;;;;;;7.93;58.70;101397.41;15725142;28;20051;-61
2022/04/11 21:03:53;;;;;;;1999.90;999.90;;;;;;;7.83;58.33;101403.13;15718005;28;20049;-62
2022/04/11 21:11:25;;;;;;;;;;;;;;;7.73;58.47;101398.50;15684796;28;20036;-62
2022/04/11 21:18:58;;;;;;;1999.90;999.90;;;;;;;7.63;59.04;101393.09;15698616;28;19955;-62
2022/04/11 21:26:31;;;;;;;1999.90;999.90;;;;;;;7.34;59.73;101400.66;15702599;28;20127;-62
2022/04/11 21:34:04;;;;;;;1999.90;999.90;;;;;;;7.45;59.68;101399.41;15715629;28;20049;-62
2022/04/11 21:41:37;;;;;;;;;;;;;;;7.37;59.61;101400.88;15727411;28;20043;-62
2022/04/11 21:49:12;;;;;;;1999.90;999.90;;;;;;;7.17;59.94;101401.94;15700188;28;19920;-61
2022/04/11 21:56:44;;;;;;;1999.90;999.90;;;;;;;6.95;60.58;101396.88;15710562;28;20059;-61
2022/04/11 22:04:18;;;;;;;1999.90;999.90;;;;;;;6.28;62.40;101398.56;15727101;28;20660;-61
2022/04/11 22:11:51;;;;;;;1999.90;999.90;;;;;;;6.56;61.13;101393.34;15728284;28;20106;-61
2022/04/11 22:19:25;;;;;;;1999.90;999.90;;;;;;;6.87;60.49;101403.06;15724967;28;20395;-61
2022/04/11 22:26:57;;;;;;;1999.90;999.90;;;;;;;6.90;60.14;101418.31;15741147;28;20206;-61
2022/04/11 22:34:31;;;;;;;1999.90;999.90;;;;;;;6.85;59.84;101423.88;15683206;28;20045;-59
2022/04/11 22:42:04;;;;;;;1999.90;999.90;;;;;;;6.51;60.24;101423.91;15717384;28;20553;-61
2022/04/11 22:49:38;;;;;;;1999.90;999.90;;;;;;;6.40;61.17;101428.69;15723284;28;20471;-58
2022/04/11 22:57:11;;;;;;;1999.90;999.90;;;;;;;6.24;60.86;101424.34;15718176;28;20052;-61
2022/04/11 23:04:44;;;;;;;1999.90;999.90;;;;;;;6.26;61.72;101422.97;15720450;28;20390;-58
2022/04/11 23:12:16;;;;;;;1999.90;999.90;;;;;;;6.01;61.59;101423.94;15689143;28;20089;-60
2022/04/11 23:19:51;;;;;;;1999.90;999.90;;;;;;;6.22;61.07;101421.88;15701783;28;20051;-61
2022/04/11 23:27:23;;;;;;;1999.90;999.90;;;;;;;6.42;60.10;101423.69;15698878;28;20041;-61
2022/04/11 23:34:57;;;;;;;1999.90;999.90;;;;;;;5.72;60.76;101406.31;15718977;28;20045;-61
2022/04/11 23:42:29;;;;;;;1999.90;999.90;;;;;;;6.21;60.22;101405.53;15713953;28;20041;-61
2022/04/11 23:50:03;;;;;;;1999.90;999.90;;;;;;;6.11;60.26;101411.97;15715375;28;20064;-60
2022/04/11 23:57:35;;;;;;;;;;;;;;;6.28;59.43;101411.59;15730889;28;20060;-61
